Time;durP1;ratioP1;P1;durP2;ratioP2;P2;SDS_P1;SDS_P2;PMS_P1;PMS_P2;Temp;Humidity;BMP_temperature;BMP_pressure;BME280_temperature;BME280_humidity;BME280_pressure;Samples;Min_cycle;Max_cycle;Signal;HPM_P1;HPM_P2
2023/05/15 00:01:42;;;;;;;11.05;7.13;;;;;;;;;;6090434;23;20028;-82
2023/05/15 00:04:16;;;;;;;11.57;7.15;;;;;;;;;;6116998;23;20044;-82
2023/05/15 00:06:43;;;;;;;10.15;6.55;;;;;;;;;;6117048;23;20029;-82
2023/05/15 00:09:11;;;;;;;9.57;6.93;;;;;;;;;;6119043;23;20036;-82
2023/05/15 00:11:45;;;;;;;12.18;7.47;;;;;;;;;;6119013;23;20779;-82
2023/05/15 00:14:12;;;;;;;13.00;7.25;;;;;;;;;;6119731;23;20046;-82
2023/05/15 00:16:39;;;;;;;13.32;7.25;;;;;;;;;;6119353;23;20133;-82
2023/05/15 00:19:13;;;;;;;8.40;7.20;;;;;;;;;;6120659;23;20032;-81
2023/05/15 00:21:40;;;;;;;7.97;6.75;;;;;;;;;;6120942;23;20093;-81
2023/05/15 00:24:14;;;;;;;10.27;7.15;;;;;;;;;;6119651;23;20057;-81
2023/05/15 00:26:41;;;;;;;12.25;7.40;;;;;;;;;;6096636;23;20105;-80
2023/05/15 00:29:08;;;;;;;7.55;6.75;;;;;;;;;;6120969;23;20105;-80
2023/05/15 00:31:42;;;;;;;12.90;8.30;;;;;;;;;;6119223;23;20405;-79
2023/05/15 00:34:09;;;;;;;10.85;7.38;;;;;;;;;;6121898;23;20752;-81
2023/05/15 00:36:43;;;;;;;9.70;7.15;;;;;;;;;;6121768;23;20061;-82
2023/05/15 00:39:10;;;;;;;;;;;;;;;;;;6121995;23;20026;-81
2023/05/15 00:41:45;;;;;;;8.52;7.60;;;;;;;;;;6119823;23;19984;-80
2023/05/15 00:44:12;;;;;;;10.63;7.38;;;;;;;;;;6120352;23;20030;-80
2023/05/15 00:46:40;;;;;;;8.80;7.28;;;;;;;;;;6120551;23;20406;-80
2023/05/15 00:49:14;;;;;;;12.93;8.60;;;;;;;;;;6120301;23;20026;-79
2023/05/15 00:51:41;;;;;;;;;;;;;;;;;;6095527;23;20054;-81
2023/05/15 00:54:15;;;;;;;17.60;7.28;;;;;;;;;;6120503;23;19987;-79
2023/05/15 00:56:43;;;;;;;15.60;7.75;;;;;;;;;;6119148;23;20022;-82
2023/05/15 00:59:10;;;;;;;12.00;7.50;;;;;;;;;;6118923;23;20034;-82
2023/05/15 01:01:51;;;;;;;14.98;7.00;;;;;;;;;;6121578;23;20024;-82
2023/05/15 01:04:18;;;;;;;11.80;7.25;;;;;;;;;;6120681;23;20100;-82
2023/05/15 01:06:52;;;;;;;10.23;7.90;;;;;;;;;;6121002;23;20109;-82
2023/05/15 01:09:20;;;;;;;11.48;7.70;;;;;;;;;;6120403;23;20022;-82
2023/05/15 01:11:49;;;;;;;9.55;7.93;;;;;;;;;;6121312;23;20049;-82
2023/05/15 01:14:23;;;;;;;14.27;8.20;;;;;;;;;;6120203;23;20324;-82
2023/05/15 01:16:50;;;;;;;9.77;8.30;;;;;;;;;;6120309;23;20033;-82
2023/05/15 01:19:24;;;;;;;9.77;8.60;;;;;;;;;;6120473;23;20105;-82
2023/05/15 01:22:04;;;;;;;10.77;8.55;;;;;;;;;;6095943;23;20026;-81
2023/05/15 01:24:54;;;;;;;8.73;7.32;;;;;;;;;;6120218;23;20100;-81
2023/05/15 01:27:47;;;;;;;11.25;8.73;;;;;;;;;;6121036;23;20026;-81
2023/05/15 01:30:27;;;;;;;10.13;9.05;;;;;;;;;;6120658;23;20064;-82
2023/05/15 01:33:20;;;;;;;12.18;9.50;;;;;;;;;;6120420;23;20129;-81
2023/05/15 01:35:50;;;;;;;11.40;9.07;;;;;;;;;;6119766;23;20026;-82
2023/05/15 01:38:30;;;;;;;12.50;8.45;;;;;;;;;;6120697;23;20104;-82
2023/05/15 01:41:02;;;;;;;14.70;8.40;;;;;;;;;;6119569;23;20021;-82
2023/05/15 01:43:39;;;;;;;13.98;9.63;;;;;;;;;;6119704;23;20033;-82
2023/05/15 01:46:06;;;;;;;12.73;9.10;;;;;;;;;;6092777;23;20105;-81
2023/05/15 01:48:35;;;;;;;12.60;9.13;;;;;;;;;;6118905;23;20051;-82
2023/05/15 01:51:10;;;;;;;13.45;8.93;;;;;;;;;;6119937;23;20109;-82
2023/05/15 01:53:37;;;;;;;9.27;7.10;;;;;;;;;;6120043;23;20097;-81
2023/05/15 01:56:12;;;;;;;9.02;7.95;;;;;;;;;;6120173;23;20061;-81
2023/05/15 01:58:40;;;;;;;10.00;8.05;;;;;;;;;;6120566;23;20033;-82
2023/05/15 02:01:08;;;;;;;14.00;8.48;;;;;;;;;;6118586;23;20077;-82
2023/05/15 02:03:42;;;;;;;13.07;8.45;;;;;;;;;;6118601;23;20076;-81
2023/05/15 02:06:10;;;;;;;9.13;8.18;;;;;;;;;;6119970;23;20026;-82
2023/05/15 02:08:44;;;;;;;11.23;9.65;;;;;;;;;;6119984;23;20072;-81
2023/05/15 02:11:12;;;;;;;11.48;9.85;;;;;;;;;;6120547;23;20018;-81
2023/05/15 02:13:40;;;;;;;13.48;10.43;;;;;;;;;;6119989;23;20108;-81
2023/05/15 02:16:14;;;;;;;16.88;10.07;;;;;;;;;;6096244;23;20029;-81
2023/05/15 02:18:41;;;;;;;11.18;9.80;;;;;;;;;;6119793;23;20487;-81
2023/05/15 02:21:15;;;;;;;13.82;10.77;;;;;;;;;;6119921;23;20064;-81
2023/05/15 02:23:42;;;;;;;13.82;10.02;;;;;;;;;;6118804;23;20022;-81
2023/05/15 02:26:25;;;;;;;11.82;9.23;;;;;;;;;;6119595;23;20028;-81
2023/05/15 02:29:02;;;;;;;13.93;9.20;;;;;;;;;;6121415;23;20029;-82
2023/05/15 02:31:38;;;;;;;14.70;9.55;;;;;;;;;;6121223;23;20053;-82
2023/05/15 02:34:26;;;;;;;16.42;11.05;;;;;;;;;;6120745;23;20030;-82
2023/05/15 02:36:55;;;;;;;17.08;10.25;;;;;;;;;;6119969;23;20053;-81
2023/05/15 02:39:28;;;;;;;16.13;11.00;;;;;;;;;;6120021;23;20026;-81
2023/05/15 02:41:55;;;;;;;;;;;;;;;;;;6094618;23;20093;-81
2023/05/15 02:44:30;;;;;;;13.60;10.45;;;;;;;;;;6120381;23;19988;-81
2023/05/15 02:46:57;;;;;;;18.88;10.80;;;;;;;;;;6118592;23;20096;-82
2023/05/15 02:49:25;;;;;;;13.23;10.30;;;;;;;;;;6119335;23;20034;-81
2023/05/15 02:51:59;;;;;;;11.57;10.20;;;;;;;;;;6094532;23;20505;-81
2023/05/15 02:54:26;;;;;;;13.57;10.82;;;;;;;;;;6117287;23;20037;-81
2023/05/15 02:57:00;;;;;;;13.77;10.93;;;;;;;;;;6094010;23;20021;-81
2023/05/15 02:59:41;;;;;;;18.35;11.35;;;;;;;;;;6118298;23;20438;-81
2023/05/15 03:02:15;;;;;;;16.70;11.88;;;;;;;;;;6118564;23;20064;-81
2023/05/15 03:04:49;;;;;;;21.92;12.43;;;;;;;;;;6119650;23;20025;-81
2023/05/15 03:07:16;;;;;;;15.95;12.13;;;;;;;;;;6119061;23;20080;-81
2023/05/15 03:09:50;;;;;;;15.35;9.70;;;;;;;;;;6120117;23;20057;-81
2023/05/15 03:12:17;;;;;;;12.73;9.13;;;;;;;;;;6118684;23;20113;-80
2023/05/15 03:14:44;;;;;;;15.27;9.95;;;;;;;;;;6119544;23;20096;-81
2023/05/15 03:17:18;;;;;;;16.80;11.05;;;;;;;;;;6095273;23;20028;-82
2023/05/15 03:19:45;;;;;;;11.95;9.68;;;;;;;;;;6118893;23;20029;-81
2023/05/15 03:22:19;;;;;;;14.50;10.75;;;;;;;;;;6119603;23;20025;-81
2023/05/15 03:24:46;;;;;;;;;;;;;;;;;;6095001;23;20029;-81
2023/05/15 03:27:13;;;;;;;14.43;10.52;;;;;;;;;;6117525;23;19999;-79
2023/05/15 03:29:49;;;;;;;18.48;10.65;;;;;;;;;;6092791;23;20032;-81
2023/05/15 03:32:17;;;;;;;14.38;10.10;;;;;;;;;;6120154;23;20052;-81
2023/05/15 03:34:51;;;;;;;13.50;10.88;;;;;;;;;;6118748;23;20030;-81
2023/05/15 03:37:18;;;;;;;14.75;10.77;;;;;;;;;;6119365;23;20035;-81
2023/05/15 03:39:45;;;;;;;13.73;10.32;;;;;;;;;;6119306;23;20076;-81
2023/05/15 03:42:22;;;;;;;12.40;10.02;;;;;;;;;;6117713;23;20021;-81
2023/05/15 03:44:50;;;;;;;11.85;10.40;;;;;;;;;;6118563;23;20459;-81
2023/05/15 03:47:17;;;;;;;;;;;;;;;;;;6118863;23;20022;-81
2023/05/15 03:49:51;;;;;;;12.15;9.75;;;;;;;;;;6118120;23;20317;-81
2023/05/15 03:52:18;;;;;;;11.90;9.43;;;;;;;;;;6118923;23;20061;-81
2023/05/15 03:54:52;;;;;;;13.13;9.80;;;;;;;;;;6094778;23;20024;-81
2023/05/15 03:57:19;;;;;;;14.10;10.00;;;;;;;;;;6116151;23;20032;-81
2023/05/15 03:59:46;;;;;;;13.13;9.23;;;;;;;;;;6116067;23;20030;-81
2023/05/15 04:02:27;;;;;;;11.45;8.90;;;;;;;;;;6117884;23;20053;-81
2023/05/15 04:04:54;;;;;;;11.77;8.10;;;;;;;;;;6117915;23;20029;-81
2023/05/15 04:07:28;;;;;;;10.50;7.75;;;;;;;;;;6120023;23;20325;-82
2023/05/15 04:09:55;;;;;;;10.63;7.32;;;;;;;;;;6119491;23;20037;-81
2023/05/15 04:12:22;;;;;;;11.60;7.10;;;;;;;;;;6119828;23;20061;-81
2023/05/15 04:14:56;;;;;;;12.15;7.45;;;;;;;;;;6119413;23;20515;-81
2023/05/15 04:17:24;;;;;;;9.77;7.05;;;;;;;;;;6118453;23;20093;-82
2023/05/15 04:19:58;;;;;;;8.15;7.35;;;;;;;;;;6118432;23;20026;-81
2023/05/15 04:22:25;;;;;;;10.65;7.18;;;;;;;;;;6118491;23;20049;-81
2023/05/15 04:24:52;;;;;;;8.20;7.40;;;;;;;;;;6118674;23;20026;-82
2023/05/15 04:27:26;;;;;;;10.38;7.50;;;;;;;;;;6119698;23;20563;-81
2023/05/15 04:29:53;;;;;;;;;;;;;;;;;;6120384;23;20092;-81
2023/05/15 04:32:27;;;;;;;10.85;7.32;;;;;;;;;;6118091;23;19965;-80
2023/05/15 04:34:55;;;;;;;15.55;8.18;;;;;;;;;;6119236;23;20351;-81
2023/05/15 04:37:22;;;;;;;9.48;7.18;;;;;;;;;;6118237;23;20069;-81
2023/05/15 04:39:56;;;;;;;11.82;7.40;;;;;;;;;;6094792;23;20073;-82
2023/05/15 04:42:23;;;;;;;9.02;7.47;;;;;;;;;;6120096;23;20026;-81
2023/05/15 04:44:50;;;;;;;10.88;6.22;;;;;;;;;;6116617;23;20025;-81
2023/05/15 04:47:24;;;;;;;8.20;6.88;;;;;;;;;;6115614;23;20026;-81
2023/05/15 04:49:52;;;;;;;11.68;7.07;;;;;;;;;;6115947;23;20022;-81
2023/05/15 04:52:19;;;;;;;12.00;6.80;;;;;;;;;;6115027;23;20067;-81
2023/05/15 04:54:54;;;;;;;9.13;6.82;;;;;;;;;;6115880;23;20054;-81
2023/05/15 04:57:22;;;;;;;8.82;6.68;;;;;;;;;;6114132;23;20036;-80
2023/05/15 05:00:09;;;;;;;9.20;6.82;;;;;;;;;;6114270;23;20089;-80
2023/05/15 05:02:43;;;;;;;8.00;6.90;;;;;;;;;;6114535;23;20026;-80
2023/05/15 05:05:17;;;;;;;10.10;7.43;;;;;;;;;;6118712;23;20022;-80
2023/05/15 05:07:45;;;;;;;8.40;6.97;;;;;;;;;;6120182;23;20022;-80
2023/05/15 05:10:20;;;;;;;9.65;6.57;;;;;;;;;;6120026;23;20034;-80
2023/05/15 05:12:47;;;;;;;9.43;7.28;;;;;;;;;;6119363;23;20065;-81
2023/05/15 05:15:14;;;;;;;;;;;;;;;;;;6094110;23;20061;-81
2023/05/15 05:17:48;;;;;;;8.82;7.40;;;;;;;;;;6095524;23;20003;-80
2023/05/15 05:20:16;;;;;;;8.07;7.28;;;;;;;;;;6119526;23;20081;-80
2023/05/15 05:22:43;;;;;;;10.48;7.03;;;;;;;;;;6095051;23;20018;-81
2023/05/15 05:25:17;;;;;;;9.50;6.25;;;;;;;;;;6121288;23;20028;-80
2023/05/15 05:27:44;;;;;;;8.43;7.18;;;;;;;;;;6119631;23;20025;-79
2023/05/15 05:30:18;;;;;;;9.25;6.93;;;;;;;;;;6120155;23;20068;-80
2023/05/15 05:32:45;;;;;;;11.30;6.30;;;;;;;;;;6120024;23;20415;-82
2023/05/15 05:35:13;;;;;;;8.00;7.20;;;;;;;;;;6119568;23;20026;-80
2023/05/15 05:37:47;;;;;;;9.07;7.03;;;;;;;;;;6120773;23;20097;-80
2023/05/15 05:40:16;;;;;;;6.60;6.00;;;;;;;;;;6120489;23;20061;-80
2023/05/15 05:42:50;;;;;;;10.50;6.43;;;;;;;;;;6120014;23;20022;-81
2023/05/15 05:45:17;;;;;;;8.52;6.40;;;;;;;;;;6119720;23;20076;-81
2023/05/15 05:47:45;;;;;;;12.15;6.95;;;;;;;;;;6120891;23;20389;-80
2023/05/15 05:50:18;;;;;;;8.25;6.38;;;;;;;;;;6119485;23;20081;-81
2023/05/15 05:52:45;;;;;;;12.50;6.38;;;;;;;;;;6120727;23;20057;-81
2023/05/15 05:55:19;;;;;;;8.98;6.40;;;;;;;;;;6120932;23;20026;-81
2023/05/15 05:57:46;;;;;;;10.82;5.80;;;;;;;;;;6120248;23;20097;-80
2023/05/15 06:00:13;;;;;;;8.25;6.18;;;;;;;;;;6117373;23;20475;-80
2023/05/15 06:02:54;;;;;;;13.57;6.57;;;;;;;;;;6119797;23;20026;-80
2023/05/15 06:05:22;;;;;;;9.57;6.00;;;;;;;;;;6120213;23;20089;-81
2023/05/15 06:07:56;;;;;;;15.52;6.63;;;;;;;;;;6119454;23;20103;-81
2023/05/15 06:10:23;;;;;;;;;;;;;;;;;;6095322;23;20374;-81
2023/05/15 06:12:51;;;;;;;10.65;6.10;;;;;;;;;;6119382;23;19931;-81
2023/05/15 06:15:25;;;;;;;6.72;6.03;;;;;;;;;;6120069;23;20475;-81
2023/05/15 06:17:52;;;;;;;;;;;;;;;;;;6119283;23;20457;-81
2023/05/15 06:20:26;;;;;;;10.80;6.35;;;;;;;;;;6120149;23;19921;-81
2023/05/15 06:22:53;;;;;;;12.98;5.70;;;;;;;;;;6121870;23;20022;-81
2023/05/15 06:25:21;;;;;;;10.13;5.65;;;;;;;;;;6120378;23;20456;-81
2023/05/15 06:27:54;;;;;;;7.95;5.55;;;;;;;;;;6119482;23;20060;-81
2023/05/15 06:30:21;;;;;;;;;;;;;;;;;;6119793;23;20105;-81
2023/05/15 06:32:55;;;;;;;8.45;5.95;;;;;;;;;;6095239;23;19924;-81
2023/05/15 06:35:25;;;;;;;11.07;6.15;;;;;;;;;;6119569;23;20065;-81
2023/05/15 06:37:52;;;;;;;14.95;5.25;;;;;;;;;;6120680;23;20073;-81
2023/05/15 06:40:26;;;;;;;9.98;5.57;;;;;;;;;;6119547;23;20497;-81
2023/05/15 06:42:54;;;;;;;11.73;5.85;;;;;;;;;;6119279;23;20026;-81
2023/05/15 06:45:28;;;;;;;10.35;5.88;;;;;;;;;;6118200;23;20022;-81
2023/05/15 06:48:02;;;;;;;14.10;5.80;;;;;;;;;;6119564;23;20073;-81
2023/05/15 06:50:36;;;;;;;9.40;5.15;;;;;;;;;;6119761;23;20030;-81
2023/05/15 06:53:03;;;;;;;14.15;5.25;;;;;;;;;;6119607;23;20513;-80
2023/05/15 06:55:37;;;;;;;13.07;5.13;;;;;;;;;;6120679;23;20092;-80
2023/05/15 06:58:11;;;;;;;17.52;5.50;;;;;;;;;;6118963;23;20486;-79
2023/05/15 07:00:51;;;;;;;7.50;5.05;;;;;;;;;;6117596;23;20030;-82
2023/05/15 07:03:27;;;;;;;7.25;4.95;;;;;;;;;;6119652;23;20331;-80
2023/05/15 07:05:54;;;;;;;9.25;5.00;;;;;;;;;;6118594;23;20085;-80
2023/05/15 07:08:21;;;;;;;11.48;5.15;;;;;;;;;;6118704;23;20537;-80
2023/05/15 07:10:55;;;;;;;11.38;5.18;;;;;;;;;;6119724;23;20104;-80
2023/05/15 07:13:23;;;;;;;12.27;5.80;;;;;;;;;;6119818;23;20068;-80
2023/05/15 07:15:56;;;;;;;9.85;4.93;;;;;;;;;;6094478;23;20036;-80
2023/05/15 07:18:23;;;;;;;7.65;4.72;;;;;;;;;;6119331;23;20069;-80
2023/05/15 07:20:50;;;;;;;14.27;5.28;;;;;;;;;;6119131;23;20060;-80
2023/05/15 07:23:27;;;;;;;10.57;4.68;;;;;;;;;;6120193;23;20261;-80
2023/05/15 07:25:54;;;;;;;14.68;5.00;;;;;;;;;;6093434;23;20029;-80
2023/05/15 07:28:28;;;;;;;12.48;5.25;;;;;;;;;;6119082;23;20028;-83
2023/05/15 07:30:55;;;;;;;10.18;5.38;;;;;;;;;;6119226;23;20351;-80
2023/05/15 07:33:22;;;;;;;6.97;4.68;;;;;;;;;;6119692;23;20060;-83
2023/05/15 07:35:56;;;;;;;10.98;5.35;;;;;;;;;;6119123;23;20101;-83
2023/05/15 07:38:23;;;;;;;10.57;4.72;;;;;;;;;;6119127;23;20069;-83
2023/05/15 07:40:57;;;;;;;8.82;5.22;;;;;;;;;;6120071;23;20112;-83
2023/05/15 07:43:24;;;;;;;11.73;5.13;;;;;;;;;;6120945;23;20049;-82
2023/05/15 07:45:51;;;;;;;8.85;4.70;;;;;;;;;;6121344;23;20072;-83
2023/05/15 07:48:25;;;;;;;10.20;4.75;;;;;;;;;;6120564;23;20026;-83
2023/05/15 07:50:53;;;;;;;11.25;4.93;;;;;;;;;;6121155;23;20394;-83
2023/05/15 07:53:27;;;;;;;9.10;4.78;;;;;;;;;;6120753;23;20073;-83
2023/05/15 07:55:54;;;;;;;12.30;4.85;;;;;;;;;;6121438;23;20097;-82
2023/05/15 07:58:22;;;;;;;7.13;4.80;;;;;;;;;;6121768;23;20057;-83
2023/05/15 08:01:08;;;;;;;9.55;4.80;;;;;;;;;;6118866;23;20072;-83
2023/05/15 08:03:42;;;;;;;12.00;4.72;;;;;;;;;;6121879;23;20097;-83
2023/05/15 08:06:16;;;;;;;10.73;4.60;;;;;;;;;;6120971;23;20076;-83
2023/05/15 08:08:43;;;;;;;9.23;5.45;;;;;;;;;;6119978;23;20093;-83
2023/05/15 08:11:11;;;;;;;8.30;4.72;;;;;;;;;;6121261;23;20068;-83
2023/05/15 08:13:44;;;;;;;9.20;4.75;;;;;;;;;;6122171;23;20337;-83
2023/05/15 08:16:11;;;;;;;14.55;5.00;;;;;;;;;;6121124;23;20391;-83
2023/05/15 08:18:45;;;;;;;15.55;5.32;;;;;;;;;;6120394;23;20025;-83
2023/05/15 08:21:12;;;;;;;13.35;4.78;;;;;;;;;;6121163;23;20097;-83
2023/05/15 08:23:39;;;;;;;14.38;5.10;;;;;;;;;;6120642;23;20408;-83
2023/05/15 08:26:13;;;;;;;13.25;4.70;;;;;;;;;;6121392;23;20061;-83
2023/05/15 08:28:40;;;;;;;9.95;4.57;;;;;;;;;;6121943;23;20343;-83
2023/05/15 08:31:14;;;;;;;11.52;5.07;;;;;;;;;;6120655;23;20530;-83
2023/05/15 08:33:42;;;;;;;15.05;4.80;;;;;;;;;;6121612;23;20486;-83
2023/05/15 08:36:17;;;;;;;10.70;4.72;;;;;;;;;;6122704;23;20380;-83
2023/05/15 08:38:44;;;;;;;12.10;4.78;;;;;;;;;;6121038;23;20022;-83
2023/05/15 08:41:14;;;;;;;17.13;5.00;;;;;;;;;;6121109;23;20382;-83
2023/05/15 08:44:08;;;;;;;11.20;4.70;;;;;;;;;;6121638;23;20026;-83
2023/05/15 08:46:41;;;;;;;7.07;4.88;;;;;;;;;;6095714;23;20030;-83
2023/05/15 08:49:16;;;;;;;13.02;5.40;;;;;;;;;;6094769;23;20026;-83
2023/05/15 08:51:50;;;;;;;6.35;4.68;;;;;;;;;;6119782;23;20030;-83
2023/05/15 08:54:18;;;;;;;12.98;5.15;;;;;;;;;;6120794;23;20057;-83
2023/05/15 08:56:45;;;;;;;7.82;4.53;;;;;;;;;;6119333;23;20085;-83
2023/05/15 08:59:19;;;;;;;7.55;4.75;;;;;;;;;;6121010;23;20026;-84
2023/05/15 09:01:46;;;;;;;7.55;4.50;;;;;;;;;;6088385;23;20428;-83
2023/05/15 09:04:27;;;;;;;13.63;4.65;;;;;;;;;;6089648;23;20029;-83
2023/05/15 09:06:54;;;;;;;9.63;5.47;;;;;;;;;;6089638;23;20109;-83
2023/05/15 09:09:29;;;;;;;11.85;5.28;;;;;;;;;;6091022;23;20109;-81
2023/05/15 09:11:57;;;;;;;6.15;4.35;;;;;;;;;;6089315;23;20019;-83
2023/05/15 09:14:25;;;;;;;14.48;4.82;;;;;;;;;;6092227;23;20141;-83
2023/05/15 09:16:58;;;;;;;7.65;4.60;;;;;;;;;;6089550;23;20068;-83
2023/05/15 09:19:26;;;;;;;10.35;5.07;;;;;;;;;;6091490;23;20391;-83
2023/05/15 09:22:15;;;;;;;10.75;5.20;;;;;;;;;;6091465;23;20450;-83
2023/05/15 09:24:43;;;;;;;9.93;4.60;;;;;;;;;;6089789;23;20050;-83
2023/05/15 09:27:16;;;;;;;14.65;5.30;;;;;;;;;;6089717;23;20069;-83
2023/05/15 09:29:55;;;;;;;10.23;5.35;;;;;;;;;;6091003;23;20105;-83
2023/05/15 09:32:22;;;;;;;10.10;5.15;;;;;;;;;;6090636;23;20057;-83
2023/05/15 09:34:56;;;;;;;9.68;4.97;;;;;;;;;;6091579;23;20059;-83
2023/05/15 09:37:30;;;;;;;12.07;5.00;;;;;;;;;;6090683;23;20049;-83
2023/05/15 09:40:08;;;;;;;8.88;5.20;;;;;;;;;;6090424;23;20061;-83
2023/05/15 09:42:35;;;;;;;11.90;5.93;;;;;;;;;;6089981;23;20482;-83
2023/05/15 09:45:17;;;;;;;10.80;4.88;;;;;;;;;;6091015;23;20510;-83
2023/05/15 09:47:46;;;;;;;12.20;4.63;;;;;;;;;;6090279;23;20026;-83
2023/05/15 09:50:24;;;;;;;10.27;4.78;;;;;;;;;;6090294;23;20022;-83
2023/05/15 09:52:51;;;;;;;8.27;5.28;;;;;;;;;;6090437;23;20050;-83
2023/05/15 09:55:19;;;;;;;11.95;5.38;;;;;;;;;;6090992;23;20027;-83
2023/05/15 09:58:05;;;;;;;10.93;5.07;;;;;;;;;;6090494;23;20022;-83
2023/05/15 10:00:40;;;;;;;14.48;5.20;;;;;;;;;;6090991;23;20097;-83
2023/05/15 10:03:22;;;;;;;14.18;4.88;;;;;;;;;;6120135;23;20021;-83
2023/05/15 10:05:49;;;;;;;7.03;4.75;;;;;;;;;;6118695;23;20022;-83
2023/05/15 10:08:29;;;;;;;11.10;4.90;;;;;;;;;;6120419;23;20029;-83
2023/05/15 10:10:59;;;;;;;16.58;4.97;;;;;;;;;;6119470;23;20128;-84
2023/05/15 10:13:33;;;;;;;12.45;4.93;;;;;;;;;;6119191;23;20508;-83
2023/05/15 10:16:02;;;;;;;11.60;4.93;;;;;;;;;;6119741;23;20493;-83
2023/05/15 10:18:30;;;;;;;10.20;4.72;;;;;;;;;;6119535;23;20501;-83
2023/05/15 10:21:03;;;;;;;9.52;4.45;;;;;;;;;;6119122;23;20480;-83
2023/05/15 10:23:31;;;;;;;11.32;4.55;;;;;;;;;;6120216;23;20022;-83
2023/05/15 10:26:08;;;;;;;9.15;4.60;;;;;;;;;;6120015;23;20100;-83
2023/05/15 10:28:35;;;;;;;12.20;4.30;;;;;;;;;;6120410;23;20028;-83
2023/05/15 10:31:11;;;;;;;6.50;4.00;;;;;;;;;;6119173;23;20297;-83
2023/05/15 10:33:38;;;;;;;;;;;;;;;;;;6119692;23;20026;-83
2023/05/15 10:36:13;;;;;;;8.38;4.13;;;;;;;;;;6119199;23;20024;-83
2023/05/15 10:38:41;;;;;;;8.98;4.93;;;;;;;;;;6119861;23;20102;-83
2023/05/15 10:41:09;;;;;;;11.27;4.88;;;;;;;;;;6118790;23;20026;-83
2023/05/15 10:43:44;;;;;;;10.82;4.53;;;;;;;;;;6118914;23;20033;-84
2023/05/15 10:46:12;;;;;;;11.35;4.20;;;;;;;;;;6119325;23;20026;-83
2023/05/15 10:48:39;;;;;;;10.93;4.57;;;;;;;;;;6118740;23;20484;-84
2023/05/15 10:51:17;;;;;;;10.20;4.57;;;;;;;;;;6119407;23;20351;-83
2023/05/15 10:53:45;;;;;;;7.63;3.92;;;;;;;;;;6118979;23;20025;-83
2023/05/15 10:56:20;;;;;;;11.18;4.38;;;;;;;;;;6120399;23;20061;-84
2023/05/15 10:58:48;;;;;;;7.85;4.13;;;;;;;;;;6119775;23;20096;-83
2023/05/15 11:01:28;;;;;;;8.23;3.92;;;;;;;;;;6117595;23;20462;-83
2023/05/15 11:04:12;;;;;;;10.63;3.88;;;;;;;;;;6120318;23;20084;-81
2023/05/15 11:06:41;;;;;;;9.18;4.03;;;;;;;;;;6120165;23;20025;-83
2023/05/15 11:09:26;;;;;;;13.73;4.35;;;;;;;;;;6118915;23;20363;-81
2023/05/15 11:11:57;;;;;;;9.15;3.67;;;;;;;;;;6118905;23;20033;-81
2023/05/15 11:14:42;;;;;;;12.27;4.23;;;;;;;;;;6120373;23;20057;-81
2023/05/15 11:17:10;;;;;;;10.65;3.83;;;;;;;;;;6119248;23;20254;-81
2023/05/15 11:19:50;;;;;;;10.38;4.10;;;;;;;;;;6119220;23;20554;-81
2023/05/15 11:22:38;;;;;;;7.38;3.60;;;;;;;;;;6118562;23;20097;-82
2023/05/15 11:25:12;;;;;;;8.23;3.75;;;;;;;;;;6119440;23;20407;-81
2023/05/15 11:27:40;;;;;;;8.70;3.53;;;;;;;;;;6119043;23;20097;-82
2023/05/15 11:30:08;;;;;;;7.28;3.53;;;;;;;;;;6118809;23;20030;-81
2023/05/15 11:32:42;;;;;;;8.55;3.47;;;;;;;;;;6118795;23;20068;-81
2023/05/15 11:35:10;;;;;;;6.32;2.83;;;;;;;;;;6093186;23;20037;-81
2023/05/15 11:37:48;;;;;;;11.77;3.42;;;;;;;;;;6118446;23;20054;-81
2023/05/15 11:40:20;;;;;;;7.85;3.15;;;;;;;;;;6119021;23;20518;-82
2023/05/15 11:43:01;;;;;;;8.32;3.47;;;;;;;;;;6118269;23;20033;-82
2023/05/15 11:45:33;;;;;;;6.95;3.45;;;;;;;;;;6118767;23;20026;-82
2023/05/15 11:48:08;;;;;;;9.93;3.33;;;;;;;;;;6119260;23;20068;-82
2023/05/15 11:50:35;;;;;;;15.57;3.72;;;;;;;;;;6119238;23;20096;-82
2023/05/15 11:53:06;;;;;;;5.22;3.05;;;;;;;;;;6117999;23;20040;-82
2023/05/15 11:55:40;;;;;;;;;;;;;;;;;;6119723;23;20092;-81
2023/05/15 11:58:12;;;;;;;9.10;3.42;;;;;;;;;;6093856;23;19917;-82
2023/05/15 12:01:07;;;;;;;8.93;3.05;;;;;;;;;;6114644;23;20109;-83
2023/05/15 12:03:41;;;;;;;10.32;3.20;;;;;;;;;;6118832;23;20030;-82
2023/05/15 12:06:15;;;;;;;7.68;3.15;;;;;;;;;;6118646;23;20615;-81
2023/05/15 12:08:43;;;;;;;;;;;;;;;;;;6119711;23;20037;-82
2023/05/15 12:11:10;;;;;;;6.70;3.05;;;;;;;;;;6119054;23;19935;-82
2023/05/15 12:13:44;;;;;;;8.68;3.50;;;;;;;;;;6119123;23;20076;-82
2023/05/15 12:16:11;;;;;;;5.35;3.33;;;;;;;;;;6118601;23;20032;-82
2023/05/15 12:18:38;;;;;;;;;;;;;;;;;;6119587;23;20085;-82
2023/05/15 12:21:12;;;;;;;6.90;3.70;;;;;;;;;;6119265;23;19925;-82
2023/05/15 12:23:40;;;;;;;8.23;3.33;;;;;;;;;;6119868;23;20106;-82
2023/05/15 12:26:32;;;;;;;6.07;3.60;;;;;;;;;;6120255;23;20026;-82
2023/05/15 12:29:00;;;;;;;7.05;3.55;;;;;;;;;;6120613;23;20050;-81
2023/05/15 12:31:34;;;;;;;8.25;3.45;;;;;;;;;;6121447;23;20049;-82
2023/05/15 12:34:02;;;;;;;5.47;3.47;;;;;;;;;;6120475;23;20018;-82
2023/05/15 12:36:29;;;;;;;7.80;3.97;;;;;;;;;;6120521;23;20661;-82
2023/05/15 12:39:06;;;;;;;11.50;3.42;;;;;;;;;;6120942;23;20049;-82
2023/05/15 12:41:36;;;;;;;9.63;3.45;;;;;;;;;;6121201;23;20053;-82
2023/05/15 12:44:16;;;;;;;6.38;3.15;;;;;;;;;;6121113;23;20022;-82
2023/05/15 12:46:45;;;;;;;4.85;2.97;;;;;;;;;;6120010;23;20029;-82
2023/05/15 12:49:22;;;;;;;4.50;3.22;;;;;;;;;;6120460;23;20101;-82
2023/05/15 12:51:49;;;;;;;6.15;3.30;;;;;;;;;;6119134;23;20085;-82
2023/05/15 12:54:17;;;;;;;8.82;3.40;;;;;;;;;;6120900;23;20045;-82
2023/05/15 12:56:51;;;;;;;7.82;3.30;;;;;;;;;;6120911;23;20029;-82
2023/05/15 12:59:18;;;;;;;5.72;3.00;;;;;;;;;;6120468;23;20506;-82
2023/05/15 13:02:06;;;;;;;7.97;3.33;;;;;;;;;;6117628;23;20104;-82
2023/05/15 13:04:40;;;;;;;10.93;3.45;;;;;;;;;;6120871;23;20033;-82
2023/05/15 13:07:17;;;;;;;7.65;3.25;;;;;;;;;;6120364;23;20496;-82
2023/05/15 13:09:46;;;;;;;12.07;3.58;;;;;;;;;;6119665;23;20545;-83
2023/05/15 13:12:13;;;;;;;42.67;4.28;;;;;;;;;;6118388;23;20030;-82
2023/05/15 13:14:47;;;;;;;7.43;3.47;;;;;;;;;;6119640;23;20411;-82
2023/05/15 13:17:14;;;;;;;10.00;3.85;;;;;;;;;;6120667;23;20061;-81
2023/05/15 13:19:41;;;;;;;9.60;3.53;;;;;;;;;;6120744;23;20080;-82
2023/05/15 13:22:15;;;;;;;7.78;2.90;;;;;;;;;;6119158;23;20026;-82
2023/05/15 13:24:45;;;;;;;8.00;3.05;;;;;;;;;;6120111;23;20077;-80
2023/05/15 13:27:19;;;;;;;6.47;3.42;;;;;;;;;;6119661;23;20408;-82
2023/05/15 13:29:46;;;;;;;;;;;;;;;;;;6121423;23;20104;-82
2023/05/15 13:32:13;;;;;;;8.23;3.25;;;;;;;;;;6094374;23;20039;-82
2023/05/15 13:34:47;;;;;;;6.13;3.00;;;;;;;;;;6120091;23;20065;-82
2023/05/15 13:37:15;;;;;;;9.18;3.50;;;;;;;;;;6120038;23;20073;-82
2023/05/15 13:39:42;;;;;;;7.22;3.10;;;;;;;;;;6120630;23;20018;-82
2023/05/15 13:42:16;;;;;;;6.13;3.10;;;;;;;;;;6095917;23;20060;-82
2023/05/15 13:44:43;;;;;;;9.27;3.40;;;;;;;;;;6120327;23;20044;-81
2023/05/15 13:47:11;;;;;;;7.90;3.00;;;;;;;;;;6120594;23;20021;-82
2023/05/15 13:49:45;;;;;;;7.35;3.25;;;;;;;;;;6121014;23;20088;-82
2023/05/15 13:52:19;;;;;;;4.93;3.33;;;;;;;;;;6120307;23;20022;-82
2023/05/15 13:54:46;;;;;;;4.10;3.05;;;;;;;;;;6118175;23;20025;-82
2023/05/15 13:57:20;;;;;;;6.10;3.10;;;;;;;;;;6120406;23;20096;-82
2023/05/15 13:59:47;;;;;;;;;;;;;;;;;;6120631;23;20026;-82
2023/05/15 14:02:15;;;;;;;9.98;3.00;;;;;;;;;;6117306;23;19991;-82
2023/05/15 14:04:57;;;;;;;6.45;3.20;;;;;;;;;;6119292;23;20029;-82
2023/05/15 14:07:24;;;;;;;6.50;3.20;;;;;;;;;;6117976;23;20026;-82
2023/05/15 14:09:58;;;;;;;4.25;2.60;;;;;;;;;;6119366;23;20439;-82
2023/05/15 14:12:25;;;;;;;7.55;3.03;;;;;;;;;;6094490;23;20101;-81
2023/05/15 14:14:59;;;;;;;6.32;3.08;;;;;;;;;;6095156;23;20324;-82
2023/05/15 14:17:27;;;;;;;;;;;;;;;;;;6119164;23;20395;-84
2023/05/15 14:19:54;;;;;;;4.70;3.30;;;;;;;;;;6093377;23;19928;-84
2023/05/15 14:22:28;;;;;;;7.88;3.70;;;;;;;;;;6118407;23;20026;-84
2023/05/15 14:24:55;;;;;;;6.32;3.65;;;;;;;;;;6116670;23;20080;-84
2023/05/15 14:27:22;;;;;;;7.68;3.90;;;;;;;;;;6119989;23;20092;-84
2023/05/15 14:29:56;;;;;;;4.72;3.60;;;;;;;;;;6120041;23;20470;-84
2023/05/15 14:32:24;;;;;;;9.02;3.83;;;;;;;;;;6119299;23;20104;-82
2023/05/15 14:34:58;;;;;;;8.90;4.20;;;;;;;;;;6119715;23;20091;-82
2023/05/15 14:37:27;;;;;;;6.43;3.72;;;;;;;;;;6119169;23;20029;-85
2023/05/15 14:39:54;;;;;;;7.60;4.35;;;;;;;;;;6119405;23;20021;-83
2023/05/15 14:42:28;;;;;;;9.07;4.13;;;;;;;;;;6118972;23;20069;-82
2023/05/15 14:44:55;;;;;;;6.43;3.60;;;;;;;;;;6120223;23;20026;-81
2023/05/15 14:47:29;;;;;;;9.65;4.28;;;;;;;;;;6118987;23;20060;-81
2023/05/15 14:49:57;;;;;;;6.45;4.05;;;;;;;;;;6118379;23;20098;-82
2023/05/15 14:52:24;;;;;;;5.35;3.78;;;;;;;;;;6119286;23;20370;-82
2023/05/15 14:54:58;;;;;;;5.13;3.90;;;;;;;;;;6118887;23;20092;-84
2023/05/15 14:57:35;;;;;;;;;;;;;;;;;;6118869;23;20068;-82
2023/05/15 15:00:09;;;;;;;5.35;3.72;;;;;;;;;;6120098;23;20564;-82
2023/05/15 15:02:44;;;;;;;7.95;3.88;;;;;;;;;;6116156;23;20030;-82
2023/05/15 15:05:24;;;;;;;5.25;3.90;;;;;;;;;;6093945;23;20022;-82
2023/05/15 15:08:00;;;;;;;6.60;4.00;;;;;;;;;;6093276;23;20068;-83